Time;durP1;ratioP1;P1;durP2;ratioP2;P2;SDS_P1;SDS_P2;PMS_P1;PMS_P2;Temp;Humidity;BMP_temperature;BMP_pressure;BME280_temperature;BME280_humidity;BME280_pressure;Samples;Min_cycle;Max_cycle;Signal;HPM_P1;HPM_P2
2023/03/09 00:02:09;;;;;;;0.10;0.10;;;;;;;;;;6366499;22;20081;-87
2023/03/09 00:04:35;;;;;;;0.10;0.10;;;2.60;99.90;;;;;;6366432;22;20014;-88
2023/03/09 00:07:01;;;;;;;0.10;0.10;;;;;;;;;;6367713;22;20331;-88
2023/03/09 00:09:27;;;;;;;0.05;0.05;;;;;;;;;;6368778;22;20059;-89
2023/03/09 00:11:53;;;;;;;0.10;0.10;;;2.60;99.90;;;;;;6366063;22;20006;-88
2023/03/09 00:14:21;;;;;;;0.17;0.17;;;2.60;99.90;;;;;;6366907;22;19997;-88
2023/03/09 00:16:46;;;;;;;0.10;0.10;;;2.60;99.90;;;;;;6366594;22;20018;-88
2023/03/09 00:19:12;;;;;;;0.10;0.10;;;2.60;99.90;;;;;;6366732;22;20427;-88
2023/03/09 00:21:39;;;;;;;0.08;0.08;;;2.40;99.90;;;;;;6368497;22;20029;-88
2023/03/09 00:24:09;;;;;;;0.15;0.15;;;2.40;99.90;;;;;;6366970;22;20130;-88
2023/03/09 00:26:38;;;;;;;0.10;0.10;;;2.40;99.90;;;;;;6365597;22;20029;-88
2023/03/09 00:29:05;;;;;;;0.10;0.10;;;2.40;99.90;;;;;;6367260;22;20342;-88
2023/03/09 00:31:31;;;;;;;0.10;0.10;;;2.50;99.90;;;;;;6364417;22;20078;-89
2023/03/09 00:33:57;;;;;;;0.10;0.10;;;2.40;99.90;;;;;;6365545;22;20026;-88
2023/03/09 00:36:22;;;;;;;0.10;0.10;;;2.40;99.90;;;;;;6366265;22;20085;-89
2023/03/09 00:38:53;;;;;;;0.10;0.10;;;2.40;99.90;;;;;;6366606;22;20002;-88
2023/03/09 00:41:19;;;;;;;0.13;0.13;;;;;;;;;;6366043;22;20045;-88
2023/03/09 00:43:44;;;;;;;0.10;0.10;;;2.50;99.90;;;;;;6366510;22;20014;-88
2023/03/09 00:46:11;;;;;;;0.10;0.10;;;2.40;99.90;;;;;;6368245;22;20336;-88
2023/03/09 00:48:37;;;;;;;0.10;0.10;;;2.30;99.90;;;;;;6366986;22;20007;-88
2023/03/09 00:51:02;;;;;;;0.10;0.10;;;;;;;;;;6366369;22;20007;-88
2023/03/09 00:53:28;;;;;;;0.10;0.10;;;2.30;99.90;;;;;;6365853;22;20006;-88
2023/03/09 00:55:53;;;;;;;0.10;0.10;;;2.30;99.90;;;;;;6366437;22;20003;-88
2023/03/09 00:58:19;;;;;;;0.10;0.10;;;2.20;99.90;;;;;;6366610;22;20454;-88
2023/03/09 01:00:44;;;;;;;0.10;0.10;;;2.40;99.90;;;;;;6366040;22;20007;-88
2023/03/09 01:03:10;;;;;;;0.10;0.10;;;2.40;99.90;;;;;;6366000;22;19999;-88
2023/03/09 01:05:37;;;;;;;0.10;0.10;;;2.30;99.90;;;;;;6366887;22;20009;-88
2023/03/09 01:08:03;;;;;;;0.10;0.10;;;2.30;99.90;;;;;;6366409;22;20051;-88
2023/03/09 01:10:28;;;;;;;0.10;0.10;;;2.50;99.90;;;;;;6365621;22;20002;-88
2023/03/09 01:12:54;;;;;;;0.10;0.10;;;2.50;99.90;;;;;;6365712;22;20003;-88
2023/03/09 01:15:20;;;;;;;0.10;0.10;;;2.40;99.90;;;;;;6365918;22;20002;-88
2023/03/09 01:17:47;;;;;;;0.10;0.10;;;2.40;99.90;;;;;;6366334;22;20443;-88
2023/03/09 01:20:13;;;;;;;0.10;0.10;;;2.50;99.90;;;;;;6366977;22;20006;-89
2023/03/09 01:22:39;;;;;;;0.10;0.10;;;2.40;99.90;;;;;;6365572;22;20006;-88
2023/03/09 01:25:05;;;;;;;0.10;0.10;;;2.30;99.90;;;;;;6367727;22;20518;-88
2023/03/09 01:27:31;;;;;;;0.10;0.10;;;2.40;99.90;;;;;;6365239;22;20010;-89
2023/03/09 01:29:56;;;;;;;0.10;0.10;;;2.30;99.90;;;;;;6367943;22;20030;-89
2023/03/09 01:32:22;;;;;;;0.10;0.10;;;2.40;99.90;;;;;;6365048;22;20059;-88
2023/03/09 01:34:48;;;;;;;0.00;0.00;;;2.30;99.90;;;;;;6368084;22;20050;-89
2023/03/09 01:37:13;;;;;;;0.10;0.10;;;2.40;99.90;;;;;;6366540;22;20007;-89
2023/03/09 01:39:39;;;;;;;0.10;0.10;;;2.30;99.90;;;;;;6366580;22;19998;-89
2023/03/09 01:42:04;;;;;;;0.10;0.10;;;2.40;99.90;;;;;;6365073;22;19999;-88
2023/03/09 01:44:30;;;;;;;0.10;0.10;;;2.50;99.90;;;;;;6371944;22;20016;-88
2023/03/09 01:46:56;;;;;;;0.03;0.03;;;2.40;99.90;;;;;;6371972;22;20349;-88
2023/03/09 01:49:40;;;;;;;0.10;0.10;;;2.50;99.90;;;;;;6371942;22;20461;-88
2023/03/09 01:52:17;;;;;;;0.10;0.10;;;2.50;99.90;;;;;;6370705;22;20002;-88
2023/03/09 01:54:46;;;;;;;0.10;0.10;;;2.50;99.90;;;;;;6372516;22;20037;-87
2023/03/09 01:57:15;;;;;;;0.10;0.10;;;2.60;99.90;;;;;;6370769;22;20461;-85
2023/03/09 01:59:43;;;;;;;0.20;0.20;;;2.50;99.90;;;;;;6372267;22;20005;-86
2023/03/09 02:02:10;;;;;;;0.10;0.10;;;2.40;99.90;;;;;;6371017;22;20084;-86
2023/03/09 02:04:44;;;;;;;0.10;0.10;;;2.30;99.90;;;;;;6371314;22;20009;-86
2023/03/09 02:07:15;;;;;;;0.10;0.10;;;2.30;99.90;;;;;;6371352;22;20091;-86
2023/03/09 02:09:47;;;;;;;0.10;0.10;;;2.30;99.90;;;;;;6368768;22;20434;-87
2023/03/09 02:12:17;;;;;;;0.10;0.10;;;2.30;99.90;;;;;;6400437;22;20008;-86
2023/03/09 02:14:42;;;;;;;0.20;0.20;;;2.20;99.90;;;;;;6373693;22;19998;-87
2023/03/09 02:17:11;;;;;;;0.00;0.00;;;2.10;99.90;;;;;;6372595;22;20054;-87
2023/03/09 02:20:12;;;;;;;0.00;0.00;;;2.10;99.90;;;;;;6371861;22;19998;-87
2023/03/09 02:22:38;;;;;;;0.03;0.03;;;2.20;99.90;;;;;;6360822;22;20014;-87
2023/03/09 02:25:38;;;;;;;0.10;0.10;;;2.20;99.90;;;;;;6372646;22;20087;-87
2023/03/09 02:28:05;;;;;;;0.10;0.10;;;2.20;99.90;;;;;;6373170;22;20461;-87
2023/03/09 02:30:35;;;;;;;0.05;0.05;;;2.10;99.90;;;;;;6372093;22;20002;-87
2023/03/09 02:33:06;;;;;;;0.10;0.10;;;2.10;99.90;;;;;;6346826;22;20008;-86
2023/03/09 02:35:31;;;;;;;0.10;0.10;;;2.00;99.90;;;;;;6372886;22;20002;-86
2023/03/09 02:37:57;;;;;;;0.10;0.10;;;2.00;99.90;;;;;;6373209;22;20434;-86
2023/03/09 02:40:41;;;;;;;0.10;0.10;;;1.90;99.90;;;;;;6372549;22;20400;-87
2023/03/09 02:43:07;;;;;;;0.10;0.10;;;1.90;99.90;;;;;;6401367;22;20006;-86
2023/03/09 02:45:33;;;;;;;0.00;0.00;;;2.00;99.90;;;;;;6372903;22;20066;-85
2023/03/09 02:47:59;;;;;;;0.10;0.10;;;;;;;;;;6373311;22;20219;-86
2023/03/09 02:50:25;;;;;;;0.10;0.10;;;2.20;99.90;;;;;;6372531;22;20085;-86
2023/03/09 02:52:51;;;;;;;0.10;0.10;;;2.00;99.90;;;;;;6372578;22;20117;-87
2023/03/09 02:55:17;;;;;;;0.10;0.10;;;2.10;99.90;;;;;;6370558;22;19998;-86
2023/03/09 02:57:43;;;;;;;0.10;0.10;;;2.30;99.90;;;;;;6371341;22;20009;-87
2023/03/09 03:00:11;;;;;;;0.00;0.00;;;2.30;99.90;;;;;;6402257;22;20005;-86
2023/03/09 03:02:38;;;;;;;0.10;0.10;;;2.40;99.90;;;;;;6374102;22;20006;-86
2023/03/09 03:05:04;;;;;;;0.03;0.03;;;2.40;99.90;;;;;;6374087;22;20338;-86
2023/03/09 03:07:30;;;;;;;0.10;0.10;;;2.40;99.90;;;;;;6372110;22;20335;-84
2023/03/09 03:09:56;;;;;;;0.10;0.10;;;;;;;;;;6372689;22;20006;-86
2023/03/09 03:12:22;;;;;;;0.10;0.10;;;;;;;;;;6372756;22;20055;-86
2023/03/09 03:14:47;;;;;;;0.10;0.10;;;2.40;99.90;;;;;;6373380;22;20001;-87
2023/03/09 03:17:13;;;;;;;0.10;0.10;;;2.40;99.90;;;;;;6401778;22;20028;-86
2023/03/09 03:19:39;;;;;;;0.05;0.05;;;2.50;99.90;;;;;;6373332;22;20006;-85
2023/03/09 03:22:04;;;;;;;0.10;0.10;;;2.40;99.90;;;;;;6373238;22;20005;-87
2023/03/09 03:24:34;;;;;;;0.10;0.10;;;2.50;99.90;;;;;;6372917;22;20009;-86
2023/03/09 03:27:00;;;;;;;0.10;0.10;;;;;;;;;;6371368;22;20456;-86
2023/03/09 03:29:28;;;;;;;0.10;0.10;;;2.30;99.90;;;;;;6373282;22;20084;-86
2023/03/09 03:31:54;;;;;;;0.10;0.10;;;;;;;;;;6373281;22;20080;-87
2023/03/09 03:34:20;;;;;;;0.10;0.10;;;;;;;;;;6373011;22;20029;-87
2023/03/09 03:36:46;;;;;;;0.10;0.10;;;;;;;;;;6372498;22;20394;-87
2023/03/09 03:39:12;;;;;;;0.10;0.10;;;;;;;;;;6372781;22;20004;-86
2023/03/09 03:41:38;;;;;;;0.10;0.10;;;;;;;;;;6372137;22;20013;-86
2023/03/09 03:44:04;;;;;;;0.00;0.00;;;;;;;;;;6373162;22;20021;-86
2023/03/09 03:46:30;;;;;;;0.03;0.03;;;;;;;;;;6371748;22;20006;-87
2023/03/09 03:48:56;;;;;;;0.10;0.10;;;;;;;;;;6372687;22;19998;-86
2023/03/09 03:51:22;;;;;;;0.10;0.10;;;;;;;;;;6372962;22;20006;-85
2023/03/09 03:53:47;;;;;;;0.10;0.10;;;2.20;99.90;;;;;;6370327;22;20005;-86
2023/03/09 03:56:13;;;;;;;0.10;0.10;;;2.30;99.90;;;;;;6369938;22;20005;-86
2023/03/09 03:58:38;;;;;;;0.10;0.10;;;2.30;99.90;;;;;;6371351;22;20041;-87
2023/03/09 04:01:04;;;;;;;0.00;0.00;;;2.40;99.90;;;;;;6400512;22;19998;-87
2023/03/09 04:03:30;;;;;;;0.03;0.03;;;2.30;99.90;;;;;;6373796;22;20005;-87
2023/03/09 04:05:55;;;;;;;0.10;0.10;;;2.30;99.90;;;;;;6371236;22;19998;-87
2023/03/09 04:08:21;;;;;;;0.10;0.10;;;;;;;;;;6373115;22;20449;-86
2023/03/09 04:10:47;;;;;;;0.00;0.00;;;2.20;99.90;;;;;;6370980;22;19998;-86
2023/03/09 04:13:12;;;;;;;0.10;0.10;;;;;;;;;;6373087;22;20040;-85
2023/03/09 04:15:38;;;;;;;0.10;0.10;;;2.20;99.90;;;;;;6372660;22;20009;-87
2023/03/09 04:18:04;;;;;;;0.10;0.10;;;2.20;99.90;;;;;;6374333;22;20001;-86
2023/03/09 04:20:29;;;;;;;0.10;0.10;;;2.10;99.90;;;;;;6373856;22;20082;-85
2023/03/09 04:22:55;;;;;;;0.10;0.10;;;2.10;99.90;;;;;;6372361;22;20006;-87
2023/03/09 04:25:20;;;;;;;0.10;0.10;;;2.10;99.90;;;;;;6371895;22;20327;-86
2023/03/09 04:27:46;;;;;;;0.05;0.05;;;2.00;99.90;;;;;;6372754;22;20012;-86
2023/03/09 04:30:12;;;;;;;0.10;0.10;;;2.00;99.90;;;;;;6374006;22;20085;-85
2023/03/09 04:32:38;;;;;;;0.10;0.10;;;;;;;;;;6371130;22;20002;-85
2023/03/09 04:35:05;;;;;;;0.10;0.10;;;2.00;99.90;;;;;;6372837;22;20334;-87
2023/03/09 04:37:30;;;;;;;0.10;0.10;;;3.00;99.90;;;;;;6372426;22;20001;-86
2023/03/09 04:39:56;;;;;;;0.10;0.10;;;;;;;;;;6372111;22;20012;-87
2023/03/09 04:42:21;;;;;;;0.10;0.10;;;2.00;99.90;;;;;;6369092;22;20012;-86
2023/03/09 04:44:47;;;;;;;0.10;0.10;;;2.00;99.90;;;;;;6399411;22;20009;-86
2023/03/09 04:47:13;;;;;;;0.10;0.10;;;1.90;99.90;;;;;;6372433;22;20033;-85
2023/03/09 04:49:39;;;;;;;0.10;0.10;;;2.00;99.90;;;;;;6372873;22;20121;-85
2023/03/09 04:52:05;;;;;;;0.10;0.10;;;1.90;99.90;;;;;;6367448;22;20002;-86
2023/03/09 04:54:31;;;;;;;0.00;0.00;;;;;;;;;;6373031;22;19997;-86
2023/03/09 04:56:57;;;;;;;0.10;0.10;;;2.10;99.90;;;;;;6369293;22;19997;-85
2023/03/09 04:59:22;;;;;;;0.10;0.10;;;2.00;99.90;;;;;;6371922;22;20082;-86
2023/03/09 05:01:48;;;;;;;0.10;0.10;;;2.10;99.90;;;;;;6398136;22;20002;-86
2023/03/09 05:04:13;;;;;;;0.10;0.10;;;2.10;99.90;;;;;;6373135;22;20010;-86
2023/03/09 05:06:39;;;;;;;0.10;0.10;;;;;;;;;;6372341;22;20006;-85
2023/03/09 05:09:05;;;;;;;0.10;0.10;;;2.20;99.90;;;;;;6372174;22;19997;-86
2023/03/09 05:11:31;;;;;;;0.00;0.00;;;2.20;99.90;;;;;;6399043;22;20001;-85
2023/03/09 05:13:57;;;;;;;0.10;0.10;;;2.20;99.90;;;;;;6371549;22;20085;-86
2023/03/09 05:16:23;;;;;;;0.10;0.10;;;2.20;99.90;;;;;;6371664;22;20005;-87
2023/03/09 05:18:49;;;;;;;0.10;0.10;;;2.20;99.90;;;;;;6373870;22;20056;-86
2023/03/09 05:21:15;;;;;;;0.10;0.10;;;;;;;;;;6371001;22;20065;-87
2023/03/09 05:23:41;;;;;;;0.10;0.10;;;2.10;99.90;;;;;;6372355;22;20030;-87
2023/03/09 05:26:07;;;;;;;0.10;0.10;;;2.00;99.90;;;;;;6371269;22;20057;-87
2023/03/09 05:28:34;;;;;;;0.10;0.10;;;2.00;99.90;;;;;;6373077;22;20001;-86
2023/03/09 05:31:00;;;;;;;0.00;0.00;;;2.10;99.90;;;;;;6372338;22;20616;-87
2023/03/09 05:33:26;;;;;;;0.10;0.10;;;;;;;;;;6372181;22;19998;-86
2023/03/09 05:35:51;;;;;;;0.10;0.10;;;2.10;99.90;;;;;;6370630;22;20002;-86
2023/03/09 05:38:17;;;;;;;0.10;0.10;;;2.10;99.90;;;;;;6370508;22;20058;-86
2023/03/09 05:40:43;;;;;;;0.08;0.08;;;2.10;99.90;;;;;;6399248;22;20006;-85
2023/03/09 05:43:09;;;;;;;0.10;0.10;;;2.10;99.90;;;;;;6402383;22;20427;-86
2023/03/09 05:45:35;;;;;;;0.10;0.10;;;2.10;99.90;;;;;;6373359;22;20423;-86
2023/03/09 05:48:00;;;;;;;0.10;0.10;;;2.10;99.90;;;;;;6374766;22;20036;-85
2023/03/09 05:50:26;;;;;;;0.10;0.10;;;2.00;99.90;;;;;;6375651;22;20005;-87
2023/03/09 05:52:51;;;;;;;0.10;0.10;;;2.00;99.90;;;;;;6373208;22;20006;-85
2023/03/09 05:55:17;;;;;;;0.10;0.10;;;2.10;99.90;;;;;;6374122;22;20001;-86
2023/03/09 05:57:42;;;;;;;0.10;0.10;;;2.10;99.90;;;;;;6374783;22;20006;-86
2023/03/09 06:00:12;;;;;;;0.10;0.10;;;2.10;99.90;;;;;;6375178;22;20009;-85
2023/03/09 06:02:37;;;;;;;0.10;0.10;;;2.10;99.90;;;;;;6374554;22;20002;-86
2023/03/09 06:05:03;;;;;;;0.10;0.10;;;2.20;99.90;;;;;;6374902;22;20013;-86
2023/03/09 06:07:29;;;;;;;0.10;0.10;;;2.20;99.90;;;;;;6374790;22;19997;-87
2023/03/09 06:09:55;;;;;;;0.10;0.10;;;2.20;99.90;;;;;;6375545;22;20058;-87
2023/03/09 06:12:21;;;;;;;0.10;0.10;;;;;;;;;;6374878;22;20363;-84
2023/03/09 06:14:48;;;;;;;0.00;0.00;;;2.30;99.90;;;;;;6375757;22;19998;-84
2023/03/09 06:17:14;;;;;;;0.10;0.10;;;2.30;99.90;;;;;;6375146;22;20008;-86
2023/03/09 06:19:40;;;;;;;0.20;0.20;;;2.20;99.90;;;;;;6374972;22;20002;-87
2023/03/09 06:22:05;;;;;;;0.10;0.10;;;2.20;99.90;;;;;;6373732;22;20002;-86
2023/03/09 06:24:31;;;;;;;0.10;0.10;;;2.20;99.90;;;;;;6375019;22;20088;-87
2023/03/09 06:26:57;;;;;;;0.00;0.00;;;2.40;99.90;;;;;;6373723;22;20556;-87
2023/03/09 06:29:23;;;;;;;0.10;0.10;;;2.40;99.90;;;;;;6374490;22;20006;-85
2023/03/09 06:31:48;;;;;;;0.10;0.10;;;2.40;99.90;;;;;;6369579;22;20072;-85
2023/03/09 06:34:14;;;;;;;0.10;0.10;;;2.50;99.90;;;;;;6373375;22;20058;-85
2023/03/09 06:36:39;;;;;;;0.08;0.08;;;2.60;99.90;;;;;;6374045;22;20076;-85
2023/03/09 06:39:05;;;;;;;0.10;0.10;;;2.50;99.90;;;;;;6374430;22;20069;-86
2023/03/09 06:41:31;;;;;;;0.00;0.00;;;2.50;99.90;;;;;;6373963;22;20198;-85
2023/03/09 06:43:57;;;;;;;0.10;0.10;;;;;;;;;;6375125;22;20014;-86
2023/03/09 06:46:24;;;;;;;0.10;0.10;;;;;;;;;;6374595;22;20010;-86
2023/03/09 06:48:49;;;;;;;0.10;0.10;;;2.60;99.90;;;;;;6374612;22;20470;-86
2023/03/09 06:51:15;;;;;;;0.10;0.10;;;2.60;99.90;;;;;;6374255;22;20264;-85
2023/03/09 06:53:42;;;;;;;0.10;0.10;;;2.60;99.90;;;;;;6402686;22;20005;-86
2023/03/09 06:56:07;;;;;;;0.10;0.10;;;2.50;99.90;;;;;;6373271;22;20260;-85
2023/03/09 06:58:33;;;;;;;0.10;0.10;;;2.40;99.90;;;;;;6373965;22;20012;-85
2023/03/09 07:01:06;;;;;;;0.10;0.10;;;2.50;99.90;;;;;;6402456;22;20002;-86
2023/03/09 07:03:32;;;;;;;0.10;0.10;;;2.40;99.90;;;;;;6374498;22;20006;-85
2023/03/09 07:05:57;;;;;;;0.00;0.00;;;;;;;;;;6402227;22;20020;-86
2023/03/09 07:08:23;;;;;;;0.10;0.10;;;;;;;;;;6402126;22;20002;-86
2023/03/09 07:10:49;;;;;;;0.10;0.10;;;2.60;99.90;;;;;;6373233;22;20017;-85
2023/03/09 07:13:15;;;;;;;0.10;0.10;;;2.70;99.90;;;;;;6374006;22;19998;-86
2023/03/09 07:15:40;;;;;;;0.10;0.10;;;2.60;99.90;;;;;;6373444;22;19998;-86
2023/03/09 07:18:06;;;;;;;0.10;0.10;;;2.60;99.90;;;;;;6375081;22;20002;-86
2023/03/09 07:20:32;;;;;;;0.10;0.10;;;2.60;99.90;;;;;;6403094;22;20002;-85
2023/03/09 07:22:58;;;;;;;0.10;0.10;;;;;;;;;;6402203;22;20032;-86
2023/03/09 07:25:23;;;;;;;0.03;0.03;;;2.90;99.90;;;;;;6401400;22;20036;-85
2023/03/09 07:27:49;;;;;;;0.05;0.05;;;3.00;99.90;;;;;;6374641;22;20040;-85
2023/03/09 07:30:15;;;;;;;0.00;0.00;;;3.00;99.90;;;;;;6373895;22;20002;-86
2023/03/09 07:32:40;;;;;;;0.00;0.00;;;3.00;99.90;;;;;;6373864;22;20002;-85
2023/03/09 07:35:06;;;;;;;0.10;0.10;;;3.10;99.90;;;;;;6373181;22;20078;-85
2023/03/09 07:37:32;;;;;;;0.10;0.10;;;3.20;99.90;;;;;;6374105;22;20399;-85
2023/03/09 07:39:57;;;;;;;0.10;0.10;;;3.30;99.90;;;;;;6373668;22;19998;-86
2023/03/09 07:42:23;;;;;;;0.10;0.10;;;3.30;99.90;;;;;;6371640;22;20013;-85
2023/03/09 07:44:49;;;;;;;0.10;0.10;;;3.30;99.90;;;;;;6370894;22;20033;-85
2023/03/09 07:47:14;;;;;;;0.03;0.03;;;3.30;99.90;;;;;;6373981;22;19998;-86
2023/03/09 07:49:40;;;;;;;0.10;0.10;;;3.20;99.90;;;;;;6375080;22;20005;-86
2023/03/09 07:52:06;;;;;;;0.03;0.03;;;3.20;99.90;;;;;;6401652;22;20005;-85
2023/03/09 07:54:33;;;;;;;0.10;0.10;;;3.20;99.90;;;;;;6403179;22;20020;-86
2023/03/09 07:56:58;;;;;;;0.10;0.10;;;3.20;99.90;;;;;;6374496;22;20074;-87
2023/03/09 07:59:24;;;;;;;0.10;0.10;;;3.20;99.90;;;;;;6375902;22;20002;-87
2023/03/09 08:01:50;;;;;;;0.10;0.10;;;;;;;;;;6375635;22;20422;-87
2023/03/09 08:04:16;;;;;;;0.10;0.10;;;3.10;99.90;;;;;;6375250;22;20089;-88
2023/03/09 08:06:43;;;;;;;0.00;0.00;;;3.30;99.90;;;;;;6402932;22;20331;-87
2023/03/09 08:09:12;;;;;;;0.10;0.10;;;3.20;99.90;;;;;;6375079;22;19998;-87
2023/03/09 08:11:38;;;;;;;0.10;0.10;;;3.40;99.90;;;;;;6374463;22;20002;-88
2023/03/09 08:14:03;;;;;;;0.10;0.10;;;3.30;99.90;;;;;;6375716;22;20025;-87
2023/03/09 08:16:29;;;;;;;0.10;0.10;;;3.30;99.90;;;;;;6373789;22;20013;-87
2023/03/09 08:18:54;;;;;;;0.10;0.10;;;3.30;99.90;;;;;;6375195;22;20002;-88
2023/03/09 08:21:20;;;;;;;0.10;0.10;;;3.40;99.90;;;;;;6374664;22;20355;-87
2023/03/09 08:23:45;;;;;;;0.10;0.10;;;3.40;99.90;;;;;;6376066;22;20443;-87
2023/03/09 08:26:13;;;;;;;0.10;0.10;;;3.40;99.90;;;;;;6374575;22;20005;-88
2023/03/09 08:28:40;;;;;;;0.10;0.10;;;3.40;99.90;;;;;;6404705;22;20025;-87
2023/03/09 08:31:10;;;;;;;0.10;0.10;;;3.40;99.90;;;;;;6375092;22;20025;-87
2023/03/09 08:33:35;;;;;;;0.10;0.10;;;3.30;99.90;;;;;;6375462;22;20033;-87
2023/03/09 08:36:10;;;;;;;0.00;0.00;;;3.30;99.90;;;;;;6374666;22;19998;-88
2023/03/09 08:38:35;;;;;;;0.10;0.10;;;3.40;99.90;;;;;;6375632;22;20506;-87
2023/03/09 08:41:01;;;;;;;0.10;0.10;;;3.40;99.90;;;;;;6374393;22;19998;-88
2023/03/09 08:43:26;;;;;;;0.10;0.10;;;3.50;99.90;;;;;;6375751;22;20423;-87
2023/03/09 08:45:52;;;;;;;0.10;0.10;;;3.50;99.90;;;;;;6373475;22;20002;-89
2023/03/09 08:48:17;;;;;;;0.10;0.10;;;3.60;99.90;;;;;;6375445;22;20001;-87
2023/03/09 08:50:43;;;;;;;0.10;0.10;;;3.80;99.90;;;;;;6403934;22;20005;-87
2023/03/09 08:53:09;;;;;;;0.10;0.10;;;3.80;99.90;;;;;;6374926;22;20037;-87
2023/03/09 08:55:34;;;;;;;0.10;0.10;;;4.00;99.90;;;;;;6373852;22;20012;-87
2023/03/09 08:57:59;;;;;;;0.10;0.10;;;4.00;99.90;;;;;;6375431;22;20002;-87
2023/03/09 09:00:25;;;;;;;0.10;0.10;;;4.10;99.90;;;;;;6376363;22;20434;-86
2023/03/09 09:02:51;;;;;;;0.10;0.10;;;4.20;99.90;;;;;;6374273;22;20430;-87
2023/03/09 09:05:16;;;;;;;0.10;0.10;;;4.30;99.90;;;;;;6374123;22;20002;-87
2023/03/09 09:07:42;;;;;;;0.10;0.10;;;5.90;99.90;;;;;;6374476;22;20009;-89
2023/03/09 09:10:08;;;;;;;0.10;0.10;;;4.40;99.90;;;;;;6375282;22;20498;-87
2023/03/09 09:12:37;;;;;;;0.10;0.10;;;4.60;99.90;;;;;;6373183;22;20096;-87
2023/03/09 09:15:03;;;;;;;0.10;0.10;;;;;;;;;;6374867;22;19998;-87
2023/03/09 09:17:29;;;;;;;0.10;0.10;;;;;;;;;;6374051;22;20002;-88
2023/03/09 09:19:54;;;;;;;0.10;0.10;;;4.80;99.90;;;;;;6373345;22;20041;-87
2023/03/09 09:22:20;;;;;;;0.10;0.10;;;4.60;99.90;;;;;;6374100;22;19998;-87
2023/03/09 09:24:45;;;;;;;0.10;0.10;;;4.80;99.90;;;;;;6372744;22;19997;-87
2023/03/09 09:27:11;;;;;;;0.10;0.10;;;5.00;99.90;;;;;;6371910;22;20001;-87
2023/03/09 09:29:36;;;;;;;0.10;0.10;;;5.10;99.90;;;;;;6374085;22;19998;-87
2023/03/09 09:32:03;;;;;;;0.10;0.10;;;5.40;99.90;;;;;;6373930;22;20025;-87
2023/03/09 09:34:33;;;;;;;0.10;0.10;;;5.30;99.90;;;;;;6373112;22;20005;-88
2023/03/09 09:37:02;;;;;;;0.20;0.20;;;5.40;99.90;;;;;;6400389;22;19998;-87
2023/03/09 09:39:29;;;;;;;0.10;0.10;;;5.40;99.90;;;;;;6374586;22;20076;-87
2023/03/09 09:41:58;;;;;;;0.10;0.10;;;5.50;99.90;;;;;;6372147;22;20002;-88
2023/03/09 09:44:29;;;;;;;0.10;0.10;;;5.40;99.90;;;;;;6374428;22;20021;-88
2023/03/09 09:46:58;;;;;;;0.10;0.10;;;5.40;99.90;;;;;;6371071;22;20001;-87
2023/03/09 09:49:26;;;;;;;0.10;0.10;;;5.40;99.90;;;;;;6374173;22;20085;-87
2023/03/09 09:52:07;;;;;;;0.10;0.10;;;5.30;99.90;;;;;;6374201;22;20414;-88
2023/03/09 09:54:52;;;;;;;0.10;0.10;;;5.20;99.90;;;;;;6369534;22;20027;-87
2023/03/09 09:57:27;;;;;;;0.10;0.10;;;5.10;99.90;;;;;;6370063;22;20001;-87
2023/03/09 10:00:04;;;;;;;0.10;0.10;;;5.30;99.90;;;;;;6371685;22;20006;-87
2023/03/09 10:02:57;;;;;;;0.10;0.10;;;5.40;99.90;;;;;;6370554;22;20012;-88
2023/03/09 10:05:44;;;;;;;0.10;0.10;;;5.60;99.90;;;;;;6369388;22;20070;-87
2023/03/09 10:08:38;;;;;;;0.10;0.10;;;5.50;99.90;;;;;;6368467;22;20331;-87
2023/03/09 10:11:19;;;;;;;0.10;0.10;;;5.40;99.90;;;;;;6369895;22;20002;-87
2023/03/09 10:13:48;;;;;;;0.10;0.10;;;5.60;99.90;;;;;;6371388;22;20095;-86
2023/03/09 10:16:33;;;;;;;0.10;0.10;;;5.60;99.90;;;;;;6369995;22;20010;-87
2023/03/09 10:19:00;;;;;;;0.10;0.10;;;5.60;99.90;;;;;;6371409;22;20030;-88
2023/03/09 10:21:40;;;;;;;0.10;0.10;;;5.60;99.90;;;;;;6372319;22;20507;-87
2023/03/09 10:24:27;;;;;;;0.13;0.13;;;5.60;99.90;;;;;;6370289;22;20002;-87
2023/03/09 10:26:56;;;;;;;0.10;0.10;;;5.70;99.90;;;;;;6368425;22;20001;-87
2023/03/09 10:29:46;;;;;;;0.10;0.10;;;5.70;99.90;;;;;;6372697;22;20009;-87
2023/03/09 10:32:26;;;;;;;0.10;0.10;;;5.50;99.90;;;;;;6372164;22;20025;-87
2023/03/09 10:35:16;;;;;;;0.10;0.10;;;5.40;99.90;;;;;;6402611;22;20001;-87
2023/03/09 10:37:42;;;;;;;0.10;0.10;;;5.40;99.90;;;;;;6400863;22;20009;-87
2023/03/09 10:40:17;;;;;;;0.10;0.10;;;5.40;99.90;;;;;;6372649;22;20002;-87
2023/03/09 10:42:42;;;;;;;0.10;0.10;;;5.40;99.90;;;;;;6372047;22;20005;-87
2023/03/09 10:45:31;;;;;;;0.10;0.10;;;5.30;99.90;;;;;;6401329;22;20330;-87
2023/03/09 10:48:04;;;;;;;0.10;0.10;;;5.00;99.90;;;;;;6372219;22;20006;-88
2023/03/09 10:50:53;;;;;;;0.10;0.10;;;5.00;99.90;;;;;;6371973;22;20350;-88
2023/03/09 10:53:28;;;;;;;0.10;0.10;;;4.90;99.90;;;;;;6372596;22;20001;-87
2023/03/09 10:55:59;;;;;;;0.10;0.10;;;5.00;99.90;;;;;;6370843;22;20033;-87
2023/03/09 10:58:24;;;;;;;0.10;0.10;;;5.10;99.90;;;;;;6370966;22;20009;-87
2023/03/09 11:00:53;;;;;;;0.10;0.10;;;5.20;99.90;;;;;;6372233;22;19998;-86
2023/03/09 11:03:30;;;;;;;0.10;0.10;;;5.20;99.90;;;;;;6373508;22;20342;-87
2023/03/09 11:06:19;;;;;;;0.10;0.10;;;5.20;99.90;;;;;;6371369;22;20051;-87
2023/03/09 11:09:05;;;;;;;0.10;0.10;;;5.30;99.90;;;;;;6373628;22;20005;-87
2023/03/09 11:11:30;;;;;;;0.00;0.00;;;5.40;99.90;;;;;;6372483;22;20009;-87
2023/03/09 11:13:56;;;;;;;0.00;0.00;;;;;;;;;;6373241;22;19998;-87
2023/03/09 11:16:28;;;;;;;0.10;0.10;;;5.50;99.90;;;;;;6373539;22;20445;-87
2023/03/09 11:19:14;;;;;;;0.08;0.08;;;5.50;99.90;;;;;;6367778;22;20010;-87
2023/03/09 11:21:50;;;;;;;0.10;0.10;;;5.40;99.90;;;;;;6371743;22;20002;-87
2023/03/09 11:24:17;;;;;;;0.10;0.10;;;5.50;99.90;;;;;;6372374;22;20017;-89
2023/03/09 11:26:48;;;;;;;0.10;0.10;;;5.60;99.90;;;;;;6373935;22;20474;-87
2023/03/09 11:29:25;;;;;;;0.10;0.10;;;5.70;99.90;;;;;;6372271;22;20102;-88
2023/03/09 11:31:51;;;;;;;0.10;0.10;;;5.80;99.90;;;;;;6371340;22;20006;-88
2023/03/09 11:34:39;;;;;;;0.10;0.10;;;5.80;99.90;;;;;;6371136;22;19998;-88
2023/03/09 11:37:19;;;;;;;0.10;0.10;;;5.90;99.90;;;;;;6371781;22;20002;-89
2023/03/09 11:39:52;;;;;;;0.10;0.10;;;5.90;99.90;;;;;;6370994;22;20002;-88
2023/03/09 11:42:40;;;;;;;0.10;0.10;;;6.00;99.90;;;;;;6369438;22;20447;-88
2023/03/09 11:45:14;;;;;;;0.10;0.10;;;6.10;99.90;;;;;;6372508;22;20490;-88
2023/03/09 11:47:44;;;;;;;0.10;0.10;;;6.10;99.90;;;;;;6369400;22;20320;-88
2023/03/09 11:50:23;;;;;;;0.10;0.10;;;5.80;99.90;;;;;;6371234;22;20033;-88
2023/03/09 11:52:55;;;;;;;0.10;0.10;;;5.60;99.90;;;;;;6371126;22;20002;-87
2023/03/09 11:55:27;;;;;;;0.08;0.08;;;5.50;99.90;;;;;;6369294;22;20001;-87
2023/03/09 11:57:59;;;;;;;0.10;0.10;;;5.50;99.90;;;;;;6375818;22;20012;-88
2023/03/09 12:00:27;;;;;;;0.10;0.10;;;5.60;99.90;;;;;;6404514;22;20498;-88
2023/03/09 12:02:52;;;;;;;0.10;0.10;;;5.60;99.90;;;;;;6372515;22;20002;-87
2023/03/09 12:05:18;;;;;;;0.10;0.10;;;5.30;99.90;;;;;;6372887;22;19998;-88
2023/03/09 12:08:35;;;;;;;0.10;0.10;;;6.20;99.90;;;;;;6374825;22;20029;-88
2023/03/09 12:11:16;;;;;;;0.10;0.10;;;5.20;99.90;;;;;;6308350;22;20040;-88
2023/03/09 12:13:54;;;;;;;0.10;0.10;;;5.20;99.90;;;;;;6373095;22;20001;-87
2023/03/09 12:16:35;;;;;;;0.10;0.10;;;5.40;99.90;;;;;;6372346;22;20066;-88
2023/03/09 12:19:16;;;;;;;0.10;0.10;;;5.50;99.90;;;;;;6370985;22;19998;-87
2023/03/09 12:21:45;;;;;;;0.10;0.10;;;5.50;99.90;;;;;;6375162;22;20010;-87
2023/03/09 12:24:40;;;;;;;0.10;0.10;;;5.40;99.90;;;;;;6373328;22;20009;-88
2023/03/09 12:27:11;;;;;;;0.08;0.08;;;5.20;99.90;;;;;;6374581;22;20021;-88
2023/03/09 12:29:46;;;;;;;0.10;0.10;;;5.40;99.90;;;;;;6372232;22;19998;-87
2023/03/09 12:32:21;;;;;;;0.10;0.10;;;5.30;99.90;;;;;;6346981;22;20018;-88
2023/03/09 12:34:50;;;;;;;0.10;0.10;;;5.40;99.90;;;;;;6401099;22;20008;-87
2023/03/09 12:37:53;;;;;;;0.00;0.00;;;5.40;99.90;;;;;;6372740;22;20070;-88
2023/03/09 12:40:27;;;;;;;0.10;0.10;;;5.40;99.90;;;;;;6373517;22;20006;-88
2023/03/09 12:42:56;;;;;;;0.10;0.10;;;5.40;99.90;;;;;;6373706;22;20010;-88
2023/03/09 12:45:23;;;;;;;0.10;0.10;;;5.50;99.90;;;;;;6373417;22;20006;-87
2023/03/09 12:48:06;;;;;;;0.10;0.10;;;5.40;99.90;;;;;;6375730;22;19998;-88
2023/03/09 12:50:45;;;;;;;0.10;0.10;;;5.40;99.90;;;;;;6399321;22;19994;-87
2023/03/09 12:53:12;;;;;;;0.10;0.10;;;5.40;99.90;;;;;;6373687;22;20031;-89
2023/03/09 12:55:40;;;;;;;0.10;0.10;;;5.00;99.90;;;;;;6373677;22;20069;-88
2023/03/09 12:58:18;;;;;;;0.10;0.10;;;4.70;99.90;;;;;;6363495;22;19998;-87
2023/03/09 13:00:53;;;;;;;0.10;0.10;;;5.00;99.90;;;;;;6372334;22;20016;-87
2023/03/09 13:03:42;;;;;;;0.10;0.10;;;5.00;99.90;;;;;;6373724;22;20085;-88
2023/03/09 13:06:40;;;;;;;0.10;0.10;;;5.10;99.90;;;;;;6374103;22;20002;-87
2023/03/09 13:09:15;;;;;;;0.10;0.10;;;5.20;99.90;;;;;;6365694;22;20001;-87
2023/03/09 13:11:57;;;;;;;0.10;0.10;;;5.20;99.90;;;;;;6369957;22;20051;-88
2023/03/09 13:14:25;;;;;;;0.00;0.00;;;5.30;99.90;;;;;;6372164;22;20109;-87
2023/03/09 13:17:04;;;;;;;0.10;0.10;;;5.30;99.90;;;;;;6373199;22;20006;-87
2023/03/09 13:19:41;;;;;;;0.10;0.10;;;5.30;99.90;;;;;;6372958;22;20509;-88